Time;durP1;ratioP1;P1;durP2;ratioP2;P2;SDS_P1;SDS_P2;PMS_P1;PMS_P2;Temp;Humidity;BMP_temperature;BMP_pressure;BME280_temperature;BME280_humidity;BME280_pressure;Samples;Min_cycle;Max_cycle;Signal;HPM_P1;HPM_P2
2023/09/20 00:01:48;;;;;;;1999.90;999.90;;;;;;;13.98;100.00;94819.31;5068005;28;20169;-51
2023/09/20 00:04:14;;;;;;;1999.90;999.90;;;;;;;14.01;100.00;94817.66;5067335;28;20239;-47
2023/09/20 00:06:39;;;;;;;1999.90;999.90;;;;;;;14.01;100.00;94818.44;5068053;28;20260;-47
2023/09/20 00:09:05;;;;;;;1999.90;999.90;;;;;;;14.04;100.00;94806.56;5067248;28;20193;-49
2023/09/20 00:11:30;;;;;;;1999.90;999.90;;;;;;;14.05;100.00;94813.59;5068008;28;20170;-47
2023/09/20 00:13:58;;;;;;;1999.90;999.90;;;;;;;14.05;100.00;94804.56;5067680;28;20210;-50
2023/09/20 00:16:23;;;;;;;1999.90;999.90;;;;;;;14.05;100.00;94804.56;5067219;28;20185;-48
2023/09/20 00:18:49;;;;;;;1999.90;999.90;;;;;;;14.03;100.00;94809.75;5067045;28;20205;-48
2023/09/20 00:21:14;;;;;;;1999.90;999.90;;;;;;;13.93;100.00;94817.13;5067017;28;20181;-47
2023/09/20 00:23:40;;;;;;;1999.90;999.90;;;;;;;13.84;100.00;94811.50;5067474;28;20174;-47
2023/09/20 00:26:05;;;;;;;1999.90;999.90;;;;;;;13.77;100.00;94795.22;5067511;28;20198;-50
2023/09/20 00:28:31;;;;;;;1999.90;999.90;;;;;;;13.71;100.00;94794.25;5066901;28;20178;-49
2023/09/20 00:30:57;;;;;;;1999.90;999.90;;;;;;;13.70;100.00;94773.53;5067328;28;20193;-50
2023/09/20 00:33:22;;;;;;;1999.90;999.90;;;;;;;13.68;100.00;94773.19;5066829;28;20173;-49
2023/09/20 00:35:48;;;;;;;1999.90;999.90;;;;;;;13.66;100.00;94752.88;5066545;28;20178;-49
2023/09/20 00:38:14;;;;;;;1999.90;999.90;;;;;;;13.64;100.00;94722.34;5066700;28;20170;-48
2023/09/20 00:40:40;;;;;;;1999.90;999.90;;;;;;;13.65;100.00;94713.69;5066705;28;20176;-49
2023/09/20 00:43:07;;;;;;;1999.90;999.90;;;;;;;13.66;100.00;94690.50;5066550;28;20170;-50
2023/09/20 00:45:33;;;;;;;1999.90;999.90;;;;;;;13.67;100.00;94678.34;5067186;28;20201;-52
2023/09/20 00:48:00;;;;;;;1999.90;999.90;;;;;;;13.66;100.00;94665.81;5066479;28;20174;-50
2023/09/20 00:50:27;;;;;;;1999.90;999.90;;;;;;;13.66;100.00;94663.06;5067047;28;20174;-50
2023/09/20 00:52:54;;;;;;;1999.90;999.90;;;;;;;13.66;100.00;94643.88;5066501;28;20205;-50
2023/09/20 00:55:21;;;;;;;1999.90;999.90;;;;;;;13.67;100.00;94639.94;5066471;28;20170;-51
2023/09/20 00:57:51;;;;;;;1999.90;999.90;;;;;;;13.66;100.00;94638.38;5066537;28;20190;-46
2023/09/20 01:00:27;;;;;;;1999.90;999.90;;;;;;;13.64;100.00;94634.56;5066367;28;20174;-47
2023/09/20 01:02:54;;;;;;;1999.90;999.90;;;;;;;13.63;100.00;94628.31;5066038;28;20204;-47
2023/09/20 01:05:21;;;;;;;1999.90;999.90;;;;;;;13.63;100.00;94630.28;5066515;28;20256;-49
2023/09/20 01:07:50;;;;;;;1999.90;999.90;;;;;;;13.60;100.00;94618.22;5065344;28;20170;-47
2023/09/20 01:10:16;;;;;;;1999.90;999.90;;;;;;;13.56;100.00;94614.81;5066117;28;20245;-50
2023/09/20 01:12:42;;;;;;;1999.90;999.90;;;;;;;13.52;100.00;94605.94;5066063;28;20170;-46
2023/09/20 01:15:10;;;;;;;1999.90;999.90;;;;;;;13.52;100.00;94594.97;5066606;28;20246;-48
2023/09/20 01:17:46;;;;;;;1999.90;999.90;;;;;;;13.52;100.00;94588.69;5066446;28;20449;-47
2023/09/20 01:20:18;;;;;;;1999.90;999.90;;;;;;;13.52;100.00;94588.69;5066451;28;20174;-47
2023/09/20 01:22:44;;;;;;;1999.90;999.90;;;;;;;13.50;100.00;94575.44;5066707;28;20166;-48
2023/09/20 01:25:11;;;;;;;1999.90;999.90;;;;;;;13.50;100.00;94575.44;5065874;28;20204;-47
2023/09/20 01:27:38;;;;;;;1999.90;999.90;;;;;;;13.49;100.00;94568.41;5066306;28;20170;-49
2023/09/20 01:30:05;;;;;;;1999.90;999.90;;;;;;;13.51;100.00;94565.97;5066085;28;20536;-49
2023/09/20 01:32:30;;;;;;;1999.90;999.90;;;;;;;13.47;100.00;94564.59;5065631;28;20170;-48
2023/09/20 01:34:56;;;;;;;1999.90;999.90;;;;;;;13.42;100.00;94579.63;5065740;28;20170;-53
2023/09/20 01:37:21;;;;;;;1999.90;999.90;;;;;;;13.41;100.00;94582.78;5065694;28;20170;-52
2023/09/20 01:39:47;;;;;;;1999.90;999.90;;;;;;;13.38;100.00;94587.94;5065934;28;20224;-48
2023/09/20 01:42:15;;;;;;;1999.90;999.90;;;;;;;13.35;100.00;94585.31;5066006;28;20268;-50
2023/09/20 01:44:41;;;;;;;1999.90;999.90;;;;;;;13.33;100.00;94584.97;5066024;28;20170;-49
2023/09/20 01:47:06;;;;;;;1999.90;999.90;;;;;;;13.30;100.00;94586.63;5066047;28;20213;-48
2023/09/20 01:49:34;;;;;;;1999.90;999.90;;;;;;;13.29;100.00;94571.41;5065390;28;20170;-45
2023/09/20 01:52:00;;;;;;;1999.90;999.90;;;;;;;13.27;100.00;94578.53;5065764;28;20174;-48
2023/09/20 01:54:28;;;;;;;1999.90;999.90;;;;;;;13.27;100.00;94575.78;5065671;28;20170;-48
2023/09/20 01:56:55;;;;;;;1999.90;999.90;;;;;;;13.21;100.00;94580.28;5065634;28;20174;-47
2023/09/20 01:59:21;;;;;;;1999.90;999.90;;;;;;;13.23;100.00;94564.91;5065719;28;20180;-53
2023/09/20 02:01:48;;;;;;;1999.90;999.90;;;;;;;13.20;100.00;94567.78;5065615;28;20170;-48
2023/09/20 02:04:14;;;;;;;1999.90;999.90;;;;;;;13.18;100.00;94556.47;5065150;28;20224;-47
2023/09/20 02:06:41;;;;;;;1999.90;999.90;;;;;;;13.15;100.00;94551.91;5064940;28;20213;-49
2023/09/20 02:09:06;;;;;;;1999.90;999.90;;;;;;;13.15;100.00;94554.66;5064962;28;20470;-48
2023/09/20 02:11:31;;;;;;;1999.90;999.90;;;;;;;13.13;100.00;94557.03;5064960;28;20178;-49
2023/09/20 02:13:57;;;;;;;1999.90;999.90;;;;;;;13.14;100.00;94548.38;5065440;28;20174;-48
2023/09/20 02:16:22;;;;;;;1999.90;999.90;;;;;;;13.13;100.00;94546.06;5065300;28;20197;-51
2023/09/20 02:18:48;;;;;;;1999.90;999.90;;;;;;;13.15;100.00;94538.19;5064683;28;20174;-51
2023/09/20 02:21:14;;;;;;;1999.90;999.90;;;;;;;13.14;100.00;94531.94;5065228;28;20248;-46
2023/09/20 02:23:39;;;;;;;1999.90;999.90;;;;;;;13.15;100.00;94527.22;5065169;28;20174;-46
2023/09/20 02:26:05;;;;;;;1999.90;999.90;;;;;;;13.14;100.00;94525.66;5065090;28;20272;-48
2023/09/20 02:28:31;;;;;;;1999.90;999.90;;;;;;;13.14;100.00;94515.47;5064944;28;20181;-48
2023/09/20 02:30:57;;;;;;;1999.90;999.90;;;;;;;13.14;100.00;94515.47;5064637;28;20173;-47
2023/09/20 02:33:22;;;;;;;1999.90;999.90;;;;;;;13.15;100.00;94511.53;5065065;28;20177;-47
2023/09/20 02:35:48;;;;;;;1999.90;999.90;;;;;;;13.17;100.00;94502.88;5065027;28;20174;-48
2023/09/20 02:38:13;;;;;;;1999.90;999.90;;;;;;;13.15;100.00;94500.56;5064840;28;20462;-47
2023/09/20 02:40:39;;;;;;;1999.90;999.90;;;;;;;13.17;100.00;94503.66;5064392;28;20466;-46
2023/09/20 02:43:08;;;;;;;1999.90;999.90;;;;;;;13.16;100.00;94495.84;5064393;28;20573;-49
2023/09/20 02:45:34;;;;;;;1999.90;999.90;;;;;;;13.15;100.00;94499.81;5064208;28;20202;-48
2023/09/20 02:48:03;;;;;;;1999.90;999.90;;;;;;;13.13;100.00;94499.47;5064795;28;20205;-49
2023/09/20 02:50:28;;;;;;;1999.90;999.90;;;;;;;13.12;100.00;94500.69;5064257;28;20186;-51
2023/09/20 02:52:57;;;;;;;1999.90;999.90;;;;;;;13.11;100.00;94496.41;5064211;28;20197;-46
2023/09/20 02:55:23;;;;;;;1999.90;999.90;;;;;;;13.09;100.00;94490.59;5064396;28;20170;-50
2023/09/20 02:57:52;;;;;;;1999.90;999.90;;;;;;;13.09;100.00;94485.13;5064149;28;20201;-51
2023/09/20 03:00:46;;;;;;;1999.90;999.90;;;;;;;13.07;100.00;94476.56;5064089;28;20215;-46
2023/09/20 03:03:09;;;;;;;1999.90;999.90;;;;;;;13.07;100.00;94473.81;5064727;28;20267;-47
2023/09/20 03:05:35;;;;;;;1999.90;999.90;;;;;;;13.06;100.00;94469.56;5063962;28;20268;-48
2023/09/20 03:08:01;;;;;;;1999.90;999.90;;;;;;;13.03;100.00;94465.72;5064432;28;20170;-46
2023/09/20 03:10:28;;;;;;;1999.90;999.90;;;;;;;13.02;100.00;94464.19;5064467;28;20237;-46
2023/09/20 03:12:55;;;;;;;1999.90;999.90;;;;;;;13.00;100.00;94460.34;5063919;28;20178;-48
2023/09/20 03:15:22;;;;;;;1999.90;999.90;;;;;;;12.97;100.00;94461.22;5063864;28;20170;-46
2023/09/20 03:18:02;;;;;;;1999.90;999.90;;;;;;;12.96;100.00;94459.66;5063882;28;20209;-47
2023/09/20 03:20:32;;;;;;;1999.90;999.90;;;;;;;12.96;100.00;94443.22;5064338;28;20170;-45
2023/09/20 03:23:05;;;;;;;1999.90;999.90;;;;;;;12.94;100.00;94442.91;5064310;28;20176;-46
2023/09/20 03:25:36;;;;;;;1999.90;999.90;;;;;;;12.91;100.00;94441.03;5064172;28;20206;-47
2023/09/20 03:28:02;;;;;;;1999.90;999.90;;;;;;;12.91;100.00;94435.56;5064507;28;20212;-48
2023/09/20 03:30:31;;;;;;;1999.90;999.90;;;;;;;12.89;100.00;94427.00;5063666;28;20240;-47
2023/09/20 03:32:57;;;;;;;1999.90;999.90;;;;;;;12.88;100.00;94425.47;5064193;28;20170;-47
2023/09/20 03:35:23;;;;;;;1999.90;999.90;;;;;;;12.86;100.00;94423.19;5064159;28;20177;-48
2023/09/20 03:37:48;;;;;;;1999.90;999.90;;;;;;;12.82;100.00;94430.00;5063542;28;20169;-50
2023/09/20 03:40:18;;;;;;;1999.90;999.90;;;;;;;12.79;100.00;94439.09;5063647;28;20170;-49
2023/09/20 03:42:46;;;;;;;1999.90;999.90;;;;;;;12.77;100.00;94442.28;5063617;28;20176;-48
2023/09/20 03:45:13;;;;;;;1999.90;999.90;;;;;;;12.77;100.00;94438.75;5063457;28;20170;-46
2023/09/20 03:47:54;;;;;;;1999.90;999.90;;;;;;;12.75;100.00;94443.94;5064027;28;20177;-47
2023/09/20 03:50:21;;;;;;;1999.90;999.90;;;;;;;12.74;100.00;94432.19;5064010;28;20170;-52
2023/09/20 03:52:47;;;;;;;1999.90;999.90;;;;;;;12.73;100.00;94435.38;5063421;28;20174;-48
2023/09/20 03:55:12;;;;;;;1999.90;999.90;;;;;;;12.72;100.00;94433.84;5063326;28;20212;-52
2023/09/20 03:57:38;;;;;;;1999.90;999.90;;;;;;;12.71;100.00;94424.06;5063656;28;20193;-47
2023/09/20 04:00:11;;;;;;;1999.90;999.90;;;;;;;12.69;100.00;94423.75;5063099;28;20174;-50
2023/09/20 04:02:38;;;;;;;1999.90;999.90;;;;;;;12.67;100.00;94434.38;5063712;28;20166;-46
2023/09/20 04:05:15;;;;;;;1999.90;999.90;;;;;;;12.67;100.00;94428.91;5063369;28;20284;-49
2023/09/20 04:07:41;;;;;;;1999.90;999.90;;;;;;;12.61;100.00;94434.16;5063839;28;20166;-53
2023/09/20 04:10:07;;;;;;;1999.90;999.90;;;;;;;12.60;100.00;94435.38;5063647;28;20180;-52
2023/09/20 04:12:34;;;;;;;1999.90;999.90;;;;;;;12.57;100.00;94444.47;5063718;28;20174;-49
2023/09/20 04:14:59;;;;;;;1999.90;999.90;;;;;;;12.53;100.00;94443.81;5063336;28;20174;-48
2023/09/20 04:17:27;;;;;;;1999.90;999.90;;;;;;;12.53;100.00;94443.06;5063707;28;20292;-46
2023/09/20 04:19:53;;;;;;;1999.90;999.90;;;;;;;12.53;100.00;94448.53;5063436;28;20178;-48
2023/09/20 04:22:18;;;;;;;1999.90;999.90;;;;;;;12.49;100.00;94436.91;5063655;28;20177;-48
2023/09/20 04:24:44;;;;;;;1999.90;999.90;;;;;;;12.43;100.00;94444.16;5063160;28;20395;-48
2023/09/20 04:27:09;;;;;;;1999.90;999.90;;;;;;;12.40;100.00;94451.28;5063035;28;20198;-48
2023/09/20 04:29:37;;;;;;;1999.90;999.90;;;;;;;12.35;100.00;94456.53;5063566;28;20174;-46
2023/09/20 04:32:04;;;;;;;1999.90;999.90;;;;;;;12.34;100.00;94457.72;5063615;28;20224;-48
2023/09/20 04:34:29;;;;;;;1999.90;999.90;;;;;;;12.32;100.00;94458.16;5063084;28;20174;-47
2023/09/20 04:36:55;;;;;;;1999.90;999.90;;;;;;;12.31;100.00;94453.13;5063873;28;20173;-51
2023/09/20 04:39:20;;;;;;;1999.90;999.90;;;;;;;12.34;100.00;94446.75;5063049;28;20471;-46
2023/09/20 04:41:46;;;;;;;1999.90;999.90;;;;;;;12.35;100.00;94434.63;5064731;28;20174;-46
2023/09/20 04:44:13;;;;;;;1999.90;999.90;;;;;;;12.36;100.00;94425.19;5067073;28;20169;-48
2023/09/20 04:46:39;;;;;;;1999.90;999.90;;;;;;;12.36;100.00;94422.47;5067264;28;20201;-49
2023/09/20 04:49:05;;;;;;;1999.90;999.90;;;;;;;12.34;100.00;94419.38;5066429;28;20169;-45
2023/09/20 04:51:31;;;;;;;1999.90;999.90;;;;;;;12.35;100.00;94413.47;5066566;28;20256;-49
2023/09/20 04:53:57;;;;;;;1999.90;999.90;;;;;;;12.37;100.00;94407.56;5066838;28;20176;-49
2023/09/20 04:56:23;;;;;;;1999.90;999.90;;;;;;;12.36;100.00;94403.28;5066535;28;20174;-49
2023/09/20 04:58:49;;;;;;;1999.90;999.90;;;;;;;12.34;100.00;94401.00;5066323;28;20213;-49
2023/09/20 05:01:15;;;;;;;1999.90;999.90;;;;;;;12.38;100.00;94395.41;5066268;28;20181;-48
2023/09/20 05:03:40;;;;;;;1999.90;999.90;;;;;;;12.41;100.00;94397.25;5066056;28;20250;-47
2023/09/20 05:06:06;;;;;;;1999.90;999.90;;;;;;;12.51;100.00;94396.16;5066256;28;20204;-46
2023/09/20 05:08:32;;;;;;;1999.90;999.90;;;;;;;12.61;100.00;94389.59;5066155;28;20170;-51
2023/09/20 05:10:57;;;;;;;1999.90;999.90;;;;;;;12.65;100.00;94395.72;5066085;28;20176;-47
2023/09/20 05:13:23;;;;;;;1999.90;999.90;;;;;;;12.79;100.00;94406.97;5066050;28;20178;-49
2023/09/20 05:15:50;;;;;;;1999.90;999.90;;;;;;;13.07;100.00;94410.78;5066427;28;20170;-50
2023/09/20 05:18:16;;;;;;;1999.90;999.90;;;;;;;13.49;100.00;94419.50;5065987;28;20234;-48
2023/09/20 05:20:44;;;;;;;1999.90;999.90;;;;;;;13.91;100.00;94429.72;5066250;28;20170;-49
2023/09/20 05:23:10;;;;;;;1999.90;999.90;;;;;;;14.38;100.00;94485.28;5066260;28;20173;-49
2023/09/20 05:25:36;;;;;;;1999.90;999.90;;;;;;;14.86;100.00;94567.06;5066163;28;20201;-50
2023/09/20 05:28:01;;;;;;;1999.90;999.90;;;;;;;15.35;100.00;94700.00;5065567;28;20169;-54
2023/09/20 05:30:27;;;;;;;1999.90;999.90;;;;;;;15.50;100.00;94849.59;5065478;28;20173;-49
2023/09/20 05:32:53;;;;;;;1999.90;999.90;;;;;;;15.91;100.00;94964.94;5065754;28;20166;-49
2023/09/20 05:35:19;;;;;;;1999.90;999.90;;;;;;;16.10;100.00;95051.25;5065921;28;20180;-49
2023/09/20 05:37:44;;;;;;;1999.90;999.90;;;;;;;16.22;100.00;95120.06;5065507;28;20166;-51
2023/09/20 05:40:17;;;;;;;1999.90;999.90;;;;;;;16.47;100.00;95162.56;5065188;28;20173;-53
2023/09/20 05:42:46;;;;;;;1999.90;999.90;;;;;;;16.68;100.00;95192.16;5066013;28;20170;-52
2023/09/20 05:45:12;;;;;;;1999.90;999.90;;;;;;;16.91;100.00;95211.03;5065171;28;20200;-52
2023/09/20 05:47:38;;;;;;;1999.90;999.90;;;;;;;17.43;100.00;95227.69;5065826;28;20166;-50
2023/09/20 05:50:06;;;;;;;1999.90;999.90;;;;;;;18.02;100.00;95255.00;5065191;28;20172;-50
2023/09/20 05:52:32;;;;;;;1999.90;999.90;;;;;;;18.64;100.00;95262.75;5064938;28;20170;-46
2023/09/20 05:54:57;;;;;;;1999.90;999.90;;;;;;;19.10;100.00;95269.13;5065251;28;20177;-49
2023/09/20 05:57:23;;;;;;;1999.90;999.90;;;;;;;19.29;100.00;95276.22;5065344;28;20193;-47
2023/09/20 05:59:48;;;;;;;1999.90;999.90;;;;;;;19.57;100.00;95286.06;5064911;28;20170;-49
2023/09/20 06:02:13;;;;;;;1999.90;999.90;;;;;;;20.11;100.00;95285.97;5064999;28;20170;-52
2023/09/20 06:04:39;;;;;;;1999.90;999.90;;;;;;;20.68;100.00;95287.53;5064897;28;20281;-52
2023/09/20 06:07:04;;;;;;;1999.90;999.90;;;;;;;21.13;100.00;95278.94;5065356;28;20197;-51
2023/09/20 06:09:30;;;;;;;1999.90;999.90;;;;;;;21.53;100.00;95272.91;5065459;28;20161;-51
2023/09/20 06:11:56;;;;;;;1999.90;999.90;;;;;;;21.80;100.00;95279.03;5065261;28;20158;-48
2023/09/20 06:14:22;;;;;;;1999.90;999.90;;;;;;;22.19;100.00;95277.66;5065070;28;20242;-52
2023/09/20 06:16:48;;;;;;;1999.90;999.90;;;;;;;22.32;100.00;95286.47;5065030;28;20229;-49
2023/09/20 06:19:14;;;;;;;1999.90;999.90;;;;;;;22.84;100.00;95281.97;5064938;28;20166;-50
2023/09/20 06:21:39;;;;;;;1999.90;999.90;;;;;;;23.02;100.00;95281.69;5064613;28;20172;-49
2023/09/20 06:24:10;;;;;;;1999.90;999.90;;;;;;;23.26;100.00;95290.66;5065123;28;20178;-53
2023/09/20 06:26:37;;;;;;;1999.90;999.90;;;;;;;23.49;100.00;95286.13;5064781;28;20240;-52
2023/09/20 06:29:02;;;;;;;1999.90;999.90;;;;;;;23.49;100.00;95291.69;5064563;28;20166;-57
2023/09/20 06:31:28;;;;;;;1999.90;999.90;;;;;;;23.77;100.00;95284.38;5064465;28;20166;-52
2023/09/20 06:33:53;;;;;;;1999.90;999.90;;;;;;;24.29;100.00;95280.34;5064584;28;20166;-50
2023/09/20 06:36:22;;;;;;;1999.90;999.90;;;;;;;24.67;100.00;95265.94;5064854;28;20174;-60
2023/09/20 06:38:48;;;;;;;1999.90;999.90;;;;;;;24.62;100.00;95275.78;5064346;28;20169;-60
2023/09/20 06:41:13;;;;;;;1999.90;999.90;;;;;;;24.54;100.00;95276.72;5064237;28;20215;-60
2023/09/20 06:43:40;;;;;;;1999.90;999.90;;;;;;;24.79;100.00;95282.28;5064607;28;20166;-63
2023/09/20 06:46:09;;;;;;;1999.90;999.90;;;;;;;25.02;100.00;95274.78;5064541;28;20190;-60
2023/09/20 06:48:37;;;;;;;1999.90;999.90;;;;;;;25.44;100.00;95271.94;5064047;28;20173;-58
2023/09/20 06:51:03;;;;;;;1999.90;999.90;;;;;;;25.33;100.00;95272.69;5064123;28;20162;-59
2023/09/20 06:53:29;;;;;;;1999.90;999.90;;;;;;;25.52;100.00;95273.00;5064148;28;20219;-58
2023/09/20 06:55:54;;;;;;;1999.90;999.90;;;;;;;25.52;100.00;95272.25;5064138;28;20162;-60
2023/09/20 06:58:21;;;;;;;1999.90;999.90;;;;;;;25.87;100.00;95278.19;5064413;28;20185;-52
2023/09/20 07:00:47;;;;;;;1999.90;999.90;;;;;;;25.87;100.00;95276.16;5064771;28;20208;-55
2023/09/20 07:03:12;;;;;;;1999.90;999.90;;;;;;;26.19;100.00;95268.34;5064318;28;20162;-54
2023/09/20 07:05:37;;;;;;;1999.90;999.90;;;;;;;26.80;100.00;95255.84;5063591;28;20194;-54
2023/09/20 07:08:05;;;;;;;1999.90;999.90;;;;;;;26.92;100.00;95262.19;5064082;28;20189;-50
2023/09/20 07:10:31;;;;;;;1999.90;999.90;;;;;;;27.04;100.00;95264.47;5064417;28;20170;-54
2023/09/20 07:12:57;;;;;;;1999.90;999.90;;;;;;;27.38;100.00;95254.66;5063894;28;20236;-53
2023/09/20 07:15:25;;;;;;;1999.90;999.90;;;;;;;26.91;100.00;95261.41;5064340;28;20200;-52
2023/09/20 07:17:58;;;;;;;1999.90;999.90;;;;;;;26.93;100.00;95247.66;5063885;28;20208;-55
2023/09/20 07:20:24;;;;;;;1999.90;999.90;;;;;;;26.88;100.00;95247.69;5064193;28;20170;-57
2023/09/20 07:22:51;;;;;;;1999.90;999.90;;;;;;;27.32;100.00;95245.50;5063782;28;20224;-55
2023/09/20 07:25:20;;;;;;;1999.90;999.90;;;;;;;27.08;100.00;95242.50;5063276;28;20166;-58
2023/09/20 07:27:47;;;;;;;1999.90;999.90;;;;;;;27.49;100.00;95248.22;5064168;28;20166;-55
2023/09/20 07:30:17;;;;;;;1999.90;999.90;;;;;;;27.71;100.00;95246.09;5063547;28;20161;-56
2023/09/20 07:32:46;;;;;;;1999.90;999.90;;;;;;;28.17;100.00;95239.69;5064147;28;20169;-57
2023/09/20 07:37:57;;;;;;;1999.90;999.90;;;;;;;28.19;100.00;95237.13;5064616;28;20161;-56
2023/09/20 07:40:27;;;;;;;1999.90;999.90;;;;;;;28.88;100.00;95246.00;5064034;28;20166;-53
2023/09/20 07:42:59;;;;;;;1999.90;999.90;;;;;;;29.67;97.44;95234.09;5063853;28;20170;-54
2023/09/20 07:45:31;;;;;;;1999.90;999.90;;;;;;;29.71;93.15;95245.84;5063929;28;20213;-52
2023/09/20 07:47:56;;;;;;;1999.90;999.90;;;;;;;29.93;88.36;95251.19;5064124;28;20292;-55
2023/09/20 07:50:22;;;;;;;1999.90;999.90;;;;;;;30.02;87.33;95240.28;5063271;28;20170;-51
2023/09/20 07:52:48;;;;;;;1999.90;999.90;;;;;;;29.73;90.07;95240.44;5063440;28;20170;-53
2023/09/20 07:55:13;;;;;;;1999.90;999.90;;;;;;;29.75;92.07;95232.22;5063434;28;20177;-50
2023/09/20 07:57:39;;;;;;;1999.90;999.90;;;;;;;28.88;92.12;95229.88;5063362;28;20189;-52
2023/09/20 08:00:10;;;;;;;1999.90;999.90;;;;;;;28.77;93.59;95229.97;5063058;28;20174;-57
2023/09/20 08:02:37;;;;;;;1999.90;999.90;;;;;;;30.12;84.81;95230.09;5063856;28;20162;-52
2023/09/20 08:05:02;;;;;;;1999.90;999.90;;;;;;;29.90;82.71;95224.06;5063177;28;20292;-54
2023/09/20 08:07:28;;;;;;;1999.90;999.90;;;;;;;29.52;83.52;95225.31;5063245;28;20195;-54
2023/09/20 08:09:53;;;;;;;1999.90;999.90;;;;;;;29.16;85.35;95226.78;5063343;28;20162;-54
2023/09/20 08:12:18;;;;;;;1999.90;999.90;;;;;;;29.03;87.96;95218.25;5063204;28;20166;-55
2023/09/20 08:14:44;;;;;;;1999.90;999.90;;;;;;;29.63;79.64;95219.56;5063522;28;20168;-49
2023/09/20 08:19:53;;;;;;;1999.90;999.90;;;;;;;29.40;88.94;95212.69;5068050;28;20161;-54
2023/09/20 08:22:20;;;;;;;1999.90;999.90;;;;;;;28.60;92.78;95209.72;5066986;28;20170;-51
2023/09/20 09:00:35;;;;;;;1999.90;999.90;;;;;;;29.75;83.36;95204.78;5067384;28;20200;-50
2023/09/20 09:03:03;;;;;;;1999.90;999.90;;;;;;;29.61;83.10;95196.81;5066272;28;20165;-52
2023/09/20 09:05:29;;;;;;;1999.90;999.90;;;;;;;30.02;80.90;95186.72;5065702;28;20241;-53
2023/09/20 09:08:00;;;;;;;1999.90;999.90;;;;;;;29.90;82.99;95187.44;5066383;28;20166;-52
2023/09/20 09:10:27;;;;;;;1999.90;999.90;;;;;;;29.57;83.32;95188.63;5066470;28;20170;-54
2023/09/20 09:12:52;;;;;;;1999.90;999.90;;;;;;;29.52;83.05;95197.16;5066577;28;20170;-53
2023/09/20 09:15:18;;;;;;;1999.90;999.90;;;;;;;29.30;88.07;95189.00;5066073;28;20233;-52
2023/09/20 09:17:47;;;;;;;1999.90;999.90;;;;;;;28.95;89.26;95189.16;5066020;28;20166;-58
2023/09/20 09:20:14;;;;;;;1999.90;999.90;;;;;;;29.60;84.65;95192.50;5066396;28;20166;-58
2023/09/20 09:22:41;;;;;;;1999.90;999.90;;;;;;;29.59;84.06;95188.13;5065826;28;20194;-56
2023/09/20 09:25:16;;;;;;;1999.90;999.90;;;;;;;29.11;87.13;95179.78;5065872;28;20237;-56
2023/09/20 09:27:43;;;;;;;1999.90;999.90;;;;;;;29.04;89.22;95181.16;5065621;28;20257;-57
2023/09/20 09:30:13;;;;;;;1999.90;999.90;;;;;;;29.29;86.07;95173.41;5066276;28;20228;-53
2023/09/20 09:32:39;;;;;;;1999.90;999.90;;;;;;;28.60;93.25;95169.59;5065836;28;20166;-54
2023/09/20 09:35:06;;;;;;;1999.90;999.90;;;;;;;29.41;86.27;95163.53;5066225;28;20166;-56
2023/09/20 09:37:33;;;;;;;1999.90;999.90;;;;;;;29.45;86.92;95164.75;5066120;28;20174;-56
2023/09/20 09:40:00;;;;;;;1999.90;999.90;;;;;;;29.18;84.60;95167.94;5066075;28;20192;-57
2023/09/20 09:42:28;;;;;;;1999.90;999.90;;;;;;;29.14;85.41;95159.03;5065512;28;20172;-53
2023/09/20 09:44:55;;;;;;;1999.90;999.90;;;;;;;28.45;91.89;95150.31;5065996;28;20167;-55
2023/09/20 09:47:21;;;;;;;1999.90;999.90;;;;;;;28.26;99.25;95144.59;5065404;28;20198;-59
2023/09/20 09:49:50;;;;;;;1999.90;999.90;;;;;;;28.83;88.67;95149.13;5065918;28;20235;-59
2023/09/20 09:52:17;;;;;;;1999.90;999.90;;;;;;;29.26;90.15;95151.97;5065208;28;20173;-58
2023/09/20 09:54:44;;;;;;;1999.90;999.90;;;;;;;29.00;86.57;95157.38;5065785;28;20167;-58
2023/09/20 09:57:11;;;;;;;1999.90;999.90;;;;;;;28.37;91.76;95157.00;5065073;28;20189;-57
2023/09/20 09:59:36;;;;;;;1999.90;999.90;;;;;;;29.61;84.93;95146.13;5065686;28;20167;-58
2023/09/20 10:02:07;;;;;;;1999.90;999.90;;;;;;;29.25;87.81;95144.81;5065251;28;20177;-58
2023/09/20 10:04:34;;;;;;;1999.90;999.90;;;;;;;29.72;81.60;95148.78;5065168;28;20285;-58
2023/09/20 10:07:18;;;;;;;1999.90;999.90;;;;;;;28.66;87.08;95145.00;5065049;28;20193;-59
2023/09/20 10:09:48;;;;;;;1999.90;999.90;;;;;;;27.62;100.00;95136.94;5065535;28;20162;-59
2023/09/20 10:12:16;;;;;;;1999.90;999.90;;;;;;;28.01;94.12;95145.09;5065549;28;20251;-58
2023/09/20 10:14:43;;;;;;;1999.90;999.90;;;;;;;28.29;89.07;95131.53;5065747;28;20192;-56
2023/09/20 10:17:15;;;;;;;1999.90;999.90;;;;;;;28.50;92.82;95131.84;5064926;28;20162;-57
2023/09/20 10:19:41;;;;;;;1999.90;999.90;;;;;;;28.16;87.56;95129.34;5065436;28;20196;-58
2023/09/20 10:22:09;;;;;;;1999.90;999.90;;;;;;;28.25;89.66;95128.25;5064793;28;20166;-58
2023/09/20 10:24:55;;;;;;;1999.90;999.90;;;;;;;28.13;88.26;95124.03;5065281;28;20170;-57
2023/09/20 10:27:22;;;;;;;1999.90;999.90;;;;;;;28.19;86.43;95122.69;5065145;28;20185;-58
2023/09/20 10:30:00;;;;;;;1999.90;999.90;;;;;;;28.45;88.23;95118.63;5065067;28;20162;-56
2023/09/20 10:32:33;;;;;;;1999.90;999.90;;;;;;;28.58;84.37;95115.94;5064563;28;20161;-57
2023/09/20 10:35:22;;;;;;;1999.90;999.90;;;;;;;29.00;80.83;95112.38;5065046;28;20174;-58
2023/09/20 10:38:10;;;;;;;1999.90;999.90;;;;;;;28.53;87.04;95108.31;5065107;28;20166;-58
2023/09/20 10:40:45;;;;;;;1999.90;999.90;;;;;;;27.82;93.53;95102.81;5064412;28;20166;-58
2023/09/20 10:43:34;;;;;;;1999.90;999.90;;;;;;;26.91;100.00;95110.00;5064457;28;20207;-59
2023/09/20 10:46:00;;;;;;;1999.90;999.90;;;;;;;27.83;95.95;95104.38;5051086;28;20201;-58
2023/09/20 10:48:28;;;;;;;1999.90;999.90;;;;;;;27.39;95.02;95099.06;5064982;28;20243;-58
2023/09/20 10:50:58;;;;;;;1999.90;999.90;;;;;;;27.53;91.71;95091.59;5064286;28;20169;-58
2023/09/20 10:53:45;;;;;;;1999.90;999.90;;;;;;;27.25;86.06;95093.81;5064476;28;20169;-57
2023/09/20 10:56:31;;;;;;;1999.90;999.90;;;;;;;27.05;90.24;95097.72;5064164;28;20265;-59
2023/09/20 10:58:59;;;;;;;1999.90;999.90;;;;;;;27.35;93.52;95081.00;5063815;28;20224;-58
2023/09/20 11:01:25;;;;;;;1999.90;999.90;;;;;;;27.42;88.77;95077.63;5064156;28;20170;-58
2023/09/20 11:03:51;;;;;;;1999.90;999.90;;;;;;;27.50;92.33;95065.28;5063816;28;20224;-57
2023/09/20 11:06:16;;;;;;;1999.90;999.90;;;;;;;27.47;88.04;95071.97;5064447;28;20193;-59
2023/09/20 11:08:43;;;;;;;1999.90;999.90;;;;;;;27.61;90.36;95059.59;5064308;28;20194;-58
2023/09/20 11:11:15;;;;;;;1999.90;999.90;;;;;;;28.01;88.48;95063.63;5063780;28;20170;-59
2023/09/20 11:13:46;;;;;;;1999.90;999.90;;;;;;;27.26;93.89;95056.81;5064520;28;20166;-58
2023/09/20 11:16:12;;;;;;;1999.90;999.90;;;;;;;26.48;100.00;95055.63;5064591;28;20177;-58
2023/09/20 11:18:38;;;;;;;1999.90;999.90;;;;;;;26.76;100.00;95058.34;5064276;28;20176;-59
2023/09/20 11:21:04;;;;;;;1999.90;999.90;;;;;;;26.27;100.00;95054.44;5064353;28;20193;-59
2023/09/20 11:23:30;;;;;;;1999.90;999.90;;;;;;;25.17;100.00;95051.69;5063764;28;20170;-59
2023/09/20 11:25:58;;;;;;;1999.90;999.90;;;;;;;24.83;100.00;95055.69;5064054;28;20212;-58
2023/09/20 11:28:24;;;;;;;1999.90;999.90;;;;;;;24.53;100.00;95043.38;5064361;28;20208;-59
2023/09/20 11:30:51;;;;;;;1999.90;999.90;;;;;;;23.95;100.00;95055.28;5063708;28;20174;-58
2023/09/20 11:33:29;;;;;;;1999.90;999.90;;;;;;;23.87;100.00;95038.22;5064118;28;20174;-59